createdAt,value
2022-10-18T00:01:05.912Z,80.32
2022-10-18T00:03:33.688Z,82.00
2022-10-18T00:06:03.017Z,84.57
2022-10-18T00:08:30.024Z,85.38
2022-10-18T00:10:56.819Z,89.28
2022-10-18T00:13:23.849Z,86.20
2022-10-18T00:15:53.058Z,92.40
2022-10-18T00:18:20.551Z,87.05
2022-10-18T00:20:59.288Z,86.35
2022-10-18T00:23:26.881Z,94.75
2022-10-18T00:26:08.362Z,98.40
2022-10-18T00:28:39.253Z,103.18
2022-10-18T00:31:23.321Z,98.03
2022-10-18T00:33:52.880Z,96.07
2022-10-18T00:36:20.251Z,105.93
2022-10-18T00:38:51.207Z,106.55
2022-10-18T00:41:23.785Z,111.78
2022-10-18T00:43:56.796Z,113.70
2022-10-18T00:46:24.966Z,107.13
2022-10-18T00:51:35.427Z,108.75
2022-10-18T00:54:02.426Z,113.72
2022-10-18T00:56:30.004Z,116.00
2022-10-18T00:58:57.782Z,117.43
2022-10-18T01:01:27.587Z,118.22
2022-10-18T01:03:57.011Z,119.53
2022-10-18T01:06:24.462Z,124.80
2022-10-18T01:09:04.717Z,121.95
2022-10-18T01:11:55.895Z,120.15
2022-10-18T01:14:28.778Z,118.20
2022-10-18T01:17:13.286Z,135.60
2022-10-18T01:20:10.497Z,127.95
2022-10-18T01:22:45.024Z,133.02
2022-10-18T01:26:02.132Z,137.20
2022-10-18T01:28:34.822Z,140.27
2022-10-18T01:31:07.304Z,142.68
2022-10-18T01:33:52.226Z,132.75
2022-10-18T01:36:40.732Z,140.90
2022-10-18T01:39:12.096Z,144.38
2022-10-18T01:41:41.386Z,138.60
2022-10-18T01:44:12.768Z,143.00
2022-10-18T01:46:41.415Z,138.07
2022-10-18T01:49:08.550Z,135.32
2022-10-18T01:51:35.421Z,156.40
2022-10-18T01:54:02.592Z,142.55
2022-10-18T01:56:47.336Z,154.05
2022-10-18T01:59:40.266Z,154.13
2022-10-18T02:05:13.597Z,158.70
2022-10-18T02:08:21.989Z,165.18
2022-10-18T02:10:55.504Z,167.32
2022-10-18T02:13:25.152Z,163.23
2022-10-18T02:15:56.408Z,168.50
2022-10-18T02:18:33.685Z,169.02
2022-10-18T02:21:03.482Z,175.38
2022-10-18T02:23:31.302Z,178.75
2022-10-18T02:25:58.320Z,178.68
2022-10-18T02:31:05.957Z,161.57
2022-10-18T02:33:38.018Z,167.63
2022-10-18T02:36:13.183Z,160.25
2022-10-18T02:38:42.279Z,173.60
2022-10-18T02:41:09.096Z,196.93
2022-10-18T02:43:35.816Z,187.18
2022-10-18T02:46:02.949Z,206.82
2022-10-18T02:48:29.896Z,211.38
2022-10-18T02:50:56.591Z,213.13
2022-10-18T02:53:23.366Z,227.32
2022-10-18T02:55:50.180Z,226.10
2022-10-18T02:58:16.910Z,226.70
2022-10-18T03:00:43.529Z,278.77
2022-10-18T03:03:10.291Z,213.02
2022-10-18T03:05:37.016Z,235.15
2022-10-18T03:08:04.035Z,232.05
2022-10-18T03:10:30.773Z,202.88
2022-10-18T03:12:57.507Z,211.20
2022-10-18T03:15:24.326Z,209.32
2022-10-18T03:17:51.223Z,193.48
2022-10-18T03:20:18.012Z,185.05
2022-10-18T03:22:44.660Z,196.68
2022-10-18T03:25:11.631Z,187.13
2022-10-18T03:27:38.279Z,234.98
2022-10-18T03:30:05.815Z,205.52
2022-10-18T03:32:32.779Z,204.65
2022-10-18T03:34:59.597Z,189.20
2022-10-18T03:37:26.311Z,170.85
2022-10-18T03:39:52.946Z,214.77
2022-10-18T03:42:19.674Z,201.88
2022-10-18T03:44:46.557Z,222.52
2022-10-18T03:47:13.285Z,212.18
2022-10-18T03:49:39.996Z,205.05
2022-10-18T03:52:06.695Z,254.77
2022-10-18T03:54:33.471Z,293.10
2022-10-18T03:57:00.325Z,249.55
2022-10-18T03:59:27.229Z,267.15
2022-10-18T04:01:54.647Z,279.58
2022-10-18T04:04:21.577Z,265.98
2022-10-18T04:06:48.466Z,258.85
2022-10-18T04:09:15.280Z,218.93
2022-10-18T04:11:42.027Z,201.15
2022-10-18T04:14:08.704Z,208.27
2022-10-18T04:19:04.879Z,187.50
2022-10-18T04:21:32.605Z,177.07
2022-10-18T04:23:59.275Z,179.25
2022-10-18T04:26:26.028Z,189.85
2022-10-18T04:28:52.908Z,215.93
2022-10-18T04:31:19.788Z,220.80
2022-10-18T04:33:46.472Z,206.48
2022-10-18T04:36:13.206Z,223.25
2022-10-18T04:38:40.054Z,232.40
2022-10-18T04:41:06.861Z,183.93
2022-10-18T04:43:33.706Z,188.00
2022-10-18T04:46:00.727Z,217.23
2022-10-18T04:48:27.739Z,211.10
2022-10-18T04:50:54.466Z,187.18
2022-10-18T04:53:21.413Z,208.82
2022-10-18T04:55:49.560Z,194.15
2022-10-18T04:58:17.420Z,209.23
2022-10-18T05:00:44.357Z,191.25
2022-10-18T05:03:13.367Z,158.50
2022-10-18T05:06:00.186Z,171.25
2022-10-18T05:08:27.741Z,147.35
2022-10-18T05:10:54.554Z,127.53
2022-10-18T05:13:21.376Z,133.82
2022-10-18T05:15:48.070Z,146.68
2022-10-18T05:18:15.103Z,134.00
2022-10-18T05:20:41.856Z,140.68
2022-10-18T05:23:11.323Z,142.82
2022-10-18T05:25:42.588Z,139.13
2022-10-18T05:28:34.083Z,129.73
2022-10-18T05:31:00.405Z,145.20
2022-10-18T05:33:27.124Z,128.27
2022-10-18T05:35:53.899Z,136.93
2022-10-18T05:38:20.636Z,133.23
2022-10-18T05:40:47.523Z,142.13
2022-10-18T05:43:14.233Z,139.88
2022-10-18T05:45:47.838Z,146.00
2022-10-18T05:48:14.656Z,141.23
2022-10-18T05:50:41.447Z,155.43
2022-10-18T05:53:12.285Z,150.05
2022-10-18T05:55:45.229Z,118.40
2022-10-18T05:58:12.655Z,123.50
2022-10-18T06:00:39.398Z,125.78
2022-10-18T06:03:06.117Z,129.25
2022-10-18T06:05:33.358Z,119.03
2022-10-18T06:08:00.106Z,115.15
2022-10-18T06:10:27.393Z,124.47
2022-10-18T06:12:54.138Z,114.70
2022-10-18T06:15:21.026Z,110.55
2022-10-18T06:17:47.692Z,110.30
2022-10-18T06:20:14.415Z,113.13
2022-10-18T06:22:41.271Z,117.63
2022-10-18T06:25:08.318Z,113.25
2022-10-18T06:27:35.598Z,100.55
2022-10-18T06:30:02.462Z,126.35
2022-10-18T06:32:29.178Z,98.80
2022-10-18T06:34:55.840Z,94.13
2022-10-18T06:37:22.494Z,97.32
2022-10-18T06:39:49.187Z,91.95
2022-10-18T06:42:17.992Z,88.97
2022-10-18T06:44:47.921Z,95.28
2022-10-18T06:47:14.681Z,94.45
2022-10-18T06:49:41.450Z,91.28
2022-10-18T06:52:08.258Z,88.43
2022-10-18T06:54:35.495Z,90.38
2022-10-18T06:57:02.704Z,89.78
2022-10-18T06:59:31.313Z,88.90
2022-10-18T07:01:58.577Z,88.57
2022-10-18T07:04:28.694Z,83.18
2022-10-18T07:06:55.404Z,82.22
2022-10-18T07:09:25.490Z,82.65
2022-10-18T07:11:54.108Z,78.80
2022-10-18T07:14:22.960Z,74.88
2022-10-18T07:16:51.984Z,75.82
2022-10-18T07:19:19.277Z,75.03
2022-10-18T07:21:46.362Z,70.13
2022-10-18T07:24:13.293Z,69.43
2022-10-18T07:26:40.859Z,78.57
2022-10-18T07:29:11.349Z,67.82
2022-10-18T07:31:39.059Z,68.30
2022-10-18T07:34:07.230Z,75.35
2022-10-18T07:36:34.554Z,69.07
2022-10-18T07:39:01.655Z,71.72
2022-10-18T07:41:29.187Z,77.35
2022-10-18T07:43:56.159Z,76.65
2022-10-18T07:46:23.039Z,71.20
2022-10-18T07:48:53.068Z,72.70
2022-10-18T07:51:21.257Z,74.10
2022-10-18T07:53:48.543Z,71.38
2022-10-18T07:56:20.685Z,66.38
2022-10-18T07:58:51.276Z,74.35
2022-10-18T08:01:18.953Z,74.25
2022-10-18T08:03:45.800Z,70.13
2022-10-18T08:06:16.162Z,66.72
2022-10-18T08:08:43.251Z,64.28
2022-10-18T08:11:12.769Z,72.57
2022-10-18T08:13:39.486Z,65.93
2022-10-18T08:16:15.242Z,64.43
2022-10-18T08:18:42.457Z,60.08
2022-10-18T08:21:10.901Z,66.80
2022-10-18T08:23:38.371Z,63.30
2022-10-18T08:26:10.718Z,55.65
2022-10-18T08:28:37.736Z,57.67
2022-10-18T08:31:10.830Z,46.67
2022-10-18T08:33:39.197Z,38.47
2022-10-18T08:36:08.578Z,39.65
2022-10-18T08:38:36.504Z,39.47
2022-10-18T08:44:24.368Z,37.60
2022-10-18T08:46:56.207Z,38.17
2022-10-18T08:49:29.993Z,29.60
2022-10-18T08:51:58.093Z,36.08
2022-10-18T08:54:36.435Z,32.30
2022-10-18T08:57:10.950Z,31.35
2022-10-18T08:59:41.891Z,28.17
2022-10-18T09:02:25.978Z,31.15
2022-10-18T09:04:56.988Z,25.00
2022-10-18T09:07:53.578Z,22.75
2022-10-18T09:10:43.507Z,21.08
2022-10-18T09:13:20.000Z,19.15
2022-10-18T09:15:58.326Z,15.40
2022-10-18T09:19:10.148Z,16.40
2022-10-18T09:22:09.707Z,12.73
2022-10-18T09:24:43.040Z,10.75
2022-10-18T09:27:17.542Z,11.75
2022-10-18T09:30:09.942Z,9.63
2022-10-18T09:32:52.578Z,8.48
2022-10-18T09:35:27.202Z,7.78
2022-10-18T09:38:01.097Z,7.97
2022-10-18T09:40:30.738Z,8.52
2022-10-18T09:43:05.836Z,8.10
2022-10-18T09:45:37.854Z,6.63
2022-10-18T09:48:12.395Z,8.65
2022-10-18T09:50:47.973Z,8.73
2022-10-18T09:53:35.078Z,6.97
2022-10-18T09:56:21.918Z,9.80
2022-10-18T09:58:51.378Z,7.70
2022-10-18T10:01:30.170Z,7.80
2022-10-18T10:03:57.236Z,8.02
2022-10-18T10:06:29.936Z,8.00
2022-10-18T10:09:06.676Z,9.60
2022-10-18T10:11:35.641Z,8.57
2022-10-18T10:14:14.237Z,7.88
2022-10-18T10:16:50.301Z,10.23
2022-10-18T10:19:31.066Z,8.77
2022-10-18T10:22:26.173Z,7.60
2022-10-18T10:24:54.947Z,9.20
2022-10-18T10:27:32.126Z,8.95
2022-10-18T10:30:05.716Z,7.95
2022-10-18T10:32:45.997Z,9.30
2022-10-18T10:38:26.092Z,9.25
2022-10-18T10:40:53.141Z,7.88
2022-10-18T10:43:38.142Z,11.68
2022-10-18T10:46:18.899Z,7.05
2022-10-18T10:48:57.038Z,7.10
2022-10-18T10:51:32.957Z,6.68
2022-10-18T10:54:16.151Z,6.57
2022-10-18T10:57:12.619Z,8.95
2022-10-18T10:59:51.007Z,7.97
2022-10-18T11:02:34.915Z,6.72
2022-10-18T11:05:22.548Z,6.35
2022-10-18T11:07:51.348Z,16.23
2022-10-18T11:10:22.806Z,10.75
2022-10-18T11:13:04.611Z,5.32
2022-10-18T11:15:38.946Z,10.20
2022-10-18T11:18:18.690Z,5.68
2022-10-18T11:21:07.862Z,5.97
2022-10-18T11:23:36.626Z,5.38
2022-10-18T11:26:12.440Z,5.28
2022-10-18T11:28:57.019Z,5.32
2022-10-18T11:31:44.968Z,5.57
2022-10-18T11:34:33.568Z,7.38
2022-10-18T11:37:38.675Z,6.97
2022-10-18T11:40:36.324Z,5.40
2022-10-18T11:43:20.432Z,5.43
2022-10-18T11:46:25.267Z,4.32
2022-10-18T11:49:09.761Z,4.20
2022-10-18T11:52:07.212Z,4.80
2022-10-18T11:54:43.566Z,3.47
2022-10-18T11:57:19.226Z,3.38
2022-10-18T12:00:07.686Z,4.70
2022-10-18T12:03:24.750Z,5.72
2022-10-18T12:05:54.836Z,8.25
2022-10-18T12:08:42.291Z,3.83
2022-10-18T12:11:16.734Z,7.68
2022-10-18T12:13:57.600Z,4.20
2022-10-18T12:16:49.486Z,5.68
2022-10-18T12:19:25.188Z,3.92
2022-10-18T12:21:56.902Z,4.65
2022-10-18T12:24:28.078Z,4.80
2022-10-18T12:26:59.538Z,7.03
2022-10-18T12:29:58.801Z,7.50
2022-10-18T12:32:31.310Z,5.13
2022-10-18T12:35:03.138Z,4.10
2022-10-18T12:37:38.742Z,4.20
2022-10-18T12:40:15.690Z,3.88
2022-10-18T12:42:47.208Z,3.58
2022-10-18T12:45:13.752Z,5.47
2022-10-18T12:47:41.066Z,3.08
2022-10-18T12:50:27.764Z,5.63
2022-10-18T12:53:23.941Z,4.63
2022-10-18T12:55:52.251Z,7.38
2022-10-18T12:58:27.858Z,6.30
2022-10-18T13:00:57.192Z,4.45
2022-10-18T13:03:26.763Z,4.32
2022-10-18T13:05:57.753Z,4.40
2022-10-18T13:08:27.399Z,3.65
2022-10-18T13:11:09.552Z,5.82
2022-10-18T13:13:57.841Z,4.40
2022-10-18T13:16:48.079Z,4.35
2022-10-18T13:19:17.737Z,6.88
2022-10-18T13:22:10.235Z,9.73
2022-10-18T13:25:01.713Z,5.70
2022-10-18T13:27:49.540Z,4.03
2022-10-18T13:30:27.313Z,6.60
2022-10-18T13:33:03.903Z,5.10
2022-10-18T13:35:42.765Z,4.32
2022-10-18T13:38:32.810Z,7.60
2022-10-18T13:41:10.054Z,5.22
2022-10-18T13:43:56.991Z,4.25
2022-10-18T13:49:38.693Z,5.97
2022-10-18T13:52:36.739Z,7.05
2022-10-18T13:55:39.667Z,4.93
2022-10-18T13:58:48.894Z,7.68
2022-10-18T14:01:42.458Z,5.68
2022-10-18T14:04:33.031Z,6.70
2022-10-18T14:07:03.627Z,8.20
2022-10-18T14:09:54.885Z,8.50
2022-10-18T14:12:27.653Z,7.03
2022-10-18T14:14:56.855Z,5.45
2022-10-18T14:17:42.340Z,7.72
2022-10-18T14:20:30.218Z,7.28
2022-10-18T14:23:02.751Z,5.35
2022-10-18T14:25:33.811Z,6.68
2022-10-18T14:28:13.511Z,6.95
2022-10-18T14:30:58.212Z,6.10
2022-10-18T14:33:36.485Z,6.50
2022-10-18T14:36:10.236Z,7.00
2022-10-18T14:38:48.246Z,5.25
2022-10-18T14:41:25.139Z,6.82
2022-10-18T14:43:53.294Z,7.13
2022-10-18T14:46:30.174Z,5.18
2022-10-18T14:49:00.438Z,9.65
2022-10-18T14:51:29.964Z,3.17
2022-10-18T14:53:56.797Z,6.15
2022-10-18T14:56:31.896Z,5.18
2022-10-18T14:59:04.243Z,6.03
2022-10-18T15:01:32.678Z,6.35
2022-10-18T15:04:02.506Z,3.97
2022-10-18T15:06:29.119Z,6.22
2022-10-18T15:08:58.675Z,6.25
2022-10-18T15:11:27.263Z,9.63
2022-10-18T15:13:57.718Z,6.28
2022-10-18T15:16:27.766Z,8.63
2022-10-18T15:19:14.661Z,6.20
2022-10-18T15:22:30.380Z,6.03
2022-10-18T15:25:17.476Z,5.57
2022-10-18T15:27:56.521Z,8.07
2022-10-18T15:30:28.206Z,5.90
2022-10-18T15:32:56.414Z,7.97
2022-10-18T15:35:29.541Z,6.50
2022-10-18T15:37:58.577Z,5.72
2022-10-18T15:40:32.858Z,7.35
2022-10-18T15:43:02.654Z,7.07
2022-10-18T15:45:36.482Z,5.50
2022-10-18T15:48:23.412Z,6.38
2022-10-18T15:50:54.509Z,7.18
2022-10-18T15:53:21.069Z,6.15
2022-10-18T15:55:57.599Z,9.18
2022-10-18T15:58:44.496Z,7.03
2022-10-18T16:01:28.376Z,8.10
2022-10-18T16:06:21.501Z,8.23
2022-10-18T16:08:52.701Z,6.28
2022-10-18T16:11:26.309Z,5.85
2022-10-18T16:13:56.456Z,4.80
2022-10-18T16:16:28.202Z,11.55
2022-10-18T16:18:56.207Z,7.93
2022-10-18T16:21:26.711Z,11.18
2022-10-18T16:23:54.044Z,6.82
2022-10-18T16:26:21.765Z,6.93
2022-10-18T16:28:49.141Z,10.50
2022-10-18T16:31:27.958Z,8.25
2022-10-18T16:33:55.513Z,5.38
2022-10-18T16:36:32.904Z,8.85
2022-10-18T16:39:04.047Z,10.02
2022-10-18T16:41:30.641Z,7.47
2022-10-18T16:43:57.216Z,7.18
2022-10-18T16:46:28.921Z,4.13
2022-10-18T16:48:55.859Z,10.05
2022-10-18T16:51:23.279Z,6.00
2022-10-18T16:53:50.302Z,10.20
2022-10-18T16:56:20.324Z,6.68
2022-10-18T16:58:47.685Z,7.97
2022-10-18T17:01:16.662Z,5.80
2022-10-18T17:03:44.160Z,10.23
2022-10-18T17:06:25.891Z,6.25
2022-10-18T17:08:53.816Z,6.68
2022-10-18T17:11:22.665Z,7.57
2022-10-18T17:13:49.419Z,6.63
2022-10-18T17:16:31.165Z,7.43
2022-10-18T17:19:00.326Z,7.93
2022-10-18T17:21:28.248Z,9.63
2022-10-18T17:23:55.462Z,4.38
2022-10-18T17:26:28.977Z,5.68
2022-10-18T17:28:59.758Z,6.20
2022-10-18T17:31:27.494Z,5.75
2022-10-18T17:33:58.350Z,8.32
2022-10-18T17:36:25.470Z,8.93
2022-10-18T17:38:53.128Z,7.75
2022-10-18T17:41:20.241Z,5.68
2022-10-18T17:43:48.156Z,7.28
2022-10-18T17:46:15.889Z,6.15
2022-10-18T17:48:43.031Z,8.35
2022-10-18T17:51:16.254Z,6.15
2022-10-18T17:53:43.001Z,6.10
2022-10-18T17:56:11.014Z,5.63
2022-10-18T17:58:37.913Z,3.60
2022-10-18T18:01:18.824Z,4.47
2022-10-18T18:03:47.457Z,6.70
2022-10-18T18:06:20.858Z,4.75
2022-10-18T18:08:48.722Z,3.53
2022-10-18T18:11:16.408Z,6.28
2022-10-18T18:13:43.093Z,6.80
2022-10-18T18:16:16.265Z,5.25
2022-10-18T18:18:43.316Z,5.53
2022-10-18T18:21:10.294Z,3.47
2022-10-18T18:23:37.057Z,5.57
2022-10-18T18:26:03.928Z,4.88
2022-10-18T18:28:30.540Z,6.60
2022-10-18T18:30:57.209Z,5.88
2022-10-18T18:33:23.882Z,6.40
2022-10-18T18:35:57.839Z,8.02
2022-10-18T18:38:25.498Z,6.53
2022-10-18T18:41:05.397Z,5.38
2022-10-18T18:43:32.113Z,8.00
2022-10-18T18:45:58.940Z,5.38
2022-10-18T18:48:27.271Z,5.05
2022-10-18T18:50:54.521Z,5.78
2022-10-18T18:53:21.094Z,4.03
2022-10-18T18:55:49.515Z,4.40
2022-10-18T18:58:16.357Z,4.75
2022-10-18T19:00:44.542Z,6.28
2022-10-18T19:03:12.268Z,5.55
2022-10-18T19:05:39.041Z,2.33
2022-10-18T19:08:06.301Z,3.20
2022-10-18T19:10:33.001Z,8.00
2022-10-18T19:12:59.821Z,3.58
2022-10-18T19:15:26.565Z,3.88
2022-10-18T19:17:53.167Z,5.32
2022-10-18T19:20:19.864Z,2.63
2022-10-18T19:22:46.514Z,4.55
2022-10-18T19:25:13.662Z,3.55
2022-10-18T19:27:40.306Z,3.88
2022-10-18T19:30:11.033Z,6.50
2022-10-18T19:32:37.738Z,2.95
2022-10-18T19:35:04.690Z,4.88
2022-10-18T19:37:31.675Z,4.55
2022-10-18T19:39:59.402Z,4.25
2022-10-18T19:42:30.361Z,2.97
2022-10-18T19:44:57.915Z,4.35
2022-10-18T19:47:24.539Z,3.58
2022-10-18T19:49:52.633Z,3.00
2022-10-18T19:52:19.534Z,3.97
2022-10-18T19:54:48.686Z,1.65
2022-10-18T19:57:15.334Z,2.60
2022-10-18T19:59:42.024Z,4.38
2022-10-18T20:02:15.192Z,2.25
2022-10-18T20:04:41.948Z,3.63
2022-10-18T20:07:08.961Z,3.17
2022-10-18T20:09:35.673Z,2.97
2022-10-18T20:12:02.245Z,4.10
2022-10-18T20:14:28.875Z,3.53
2022-10-18T20:20:17.842Z,5.68
2022-10-18T20:24:10.796Z,2.60
2022-10-18T20:26:41.470Z,5.53
2022-10-18T20:29:17.832Z,3.20
2022-10-18T20:32:07.336Z,6.38
2022-10-18T20:34:39.914Z,4.10
2022-10-18T20:37:06.657Z,3.15
2022-10-18T20:39:45.848Z,5.45
2022-10-18T20:42:14.897Z,3.60
2022-10-18T20:44:49.012Z,4.85
2022-10-18T20:47:15.679Z,6.55
2022-10-18T20:49:45.069Z,2.28
2022-10-18T20:52:11.983Z,3.97
2022-10-18T20:54:38.926Z,5.30
2022-10-18T20:57:07.611Z,3.97
2022-10-18T20:59:34.360Z,4.93
2022-10-18T21:02:01.161Z,4.30
2022-10-18T21:04:28.433Z,4.30
2022-10-18T21:06:55.152Z,2.00
2022-10-18T21:09:21.904Z,5.75
2022-10-18T21:11:53.845Z,3.92
2022-10-18T21:14:23.154Z,2.17
2022-10-18T21:16:51.742Z,6.07
2022-10-18T21:19:26.946Z,1.60
2022-10-18T21:22:00.645Z,5.13
2022-10-18T21:24:38.573Z,8.30
2022-10-18T21:27:07.647Z,6.90
2022-10-18T21:29:37.681Z,4.75
2022-10-18T21:32:04.803Z,3.95
2022-10-18T21:34:31.761Z,4.63
2022-10-18T21:36:58.650Z,5.97
2022-10-18T21:39:34.040Z,6.78
2022-10-18T21:42:00.850Z,7.47
2022-10-18T21:44:30.581Z,4.40
2022-10-18T21:46:58.768Z,5.03
2022-10-18T21:49:59.430Z,6.47
2022-10-18T21:52:26.358Z,4.75
2022-10-18T21:54:55.589Z,6.22
2022-10-18T21:57:28.964Z,3.67
2022-10-18T22:00:00.886Z,5.60
2022-10-18T22:02:31.942Z,6.13
2022-10-18T22:05:00.082Z,7.63
2022-10-18T22:07:27.000Z,5.40
2022-10-18T22:09:53.989Z,8.20
2022-10-18T22:12:30.050Z,3.95
2022-10-18T22:15:07.896Z,3.28
2022-10-18T22:17:34.995Z,2.78
2022-10-18T22:20:04.097Z,4.60
2022-10-18T22:22:35.097Z,4.60
2022-10-18T22:25:04.426Z,5.18
2022-10-18T22:27:35.900Z,8.35
2022-10-18T22:30:06.337Z,4.95
2022-10-18T22:32:35.699Z,5.18
2022-10-18T22:35:02.591Z,6.50
2022-10-18T22:37:29.656Z,5.35
2022-10-18T22:39:58.034Z,6.10
2022-10-18T22:42:25.120Z,7.05
2022-10-18T22:44:52.246Z,4.10
2022-10-18T22:47:19.216Z,5.65
2022-10-18T22:49:48.815Z,7.45
2022-10-18T22:52:15.686Z,7.63
2022-10-18T22:54:42.660Z,8.02
2022-10-18T22:57:13.997Z,5.82
2022-10-18T22:59:40.846Z,8.05
2022-10-18T23:02:11.203Z,7.47
2022-10-18T23:04:39.260Z,4.93
2022-10-18T23:07:09.654Z,4.25
2022-10-18T23:09:36.448Z,9.52
2022-10-18T23:12:03.685Z,5.03
2022-10-18T23:14:30.594Z,6.38
2022-10-18T23:17:00.816Z,4.18
2022-10-18T23:19:28.996Z,4.85
2022-10-18T23:22:01.726Z,5.20
2022-10-18T23:24:31.853Z,7.07
2022-10-18T23:26:58.676Z,3.30
2022-10-18T23:29:27.066Z,6.18
2022-10-18T23:31:54.154Z,5.60
2022-10-18T23:34:21.013Z,8.95
2022-10-18T23:36:50.006Z,9.23
2022-10-18T23:39:18.255Z,5.82
2022-10-18T23:41:48.804Z,8.50
2022-10-18T23:44:16.812Z,5.13
2022-10-18T23:46:43.732Z,4.13
2022-10-18T23:49:11.242Z,4.22
2022-10-18T23:51:39.537Z,6.30
2022-10-18T23:54:06.496Z,3.58
2022-10-18T23:56:35.278Z,3.83
2022-10-18T23:59:04.704Z,4.97
